Terminal Aerodrome Forecast
Issued by NWS Louisville, KY

Home | Current Version | Previous Version | Text Only | Print | Product List | Glossary On
Versions: 1 2 3 4 5 6 7 8 9 10 11 12 13 14 15 16
000
FTUS43 KLMK 041700
TAFBWG
TAF
KBWG 041733Z 0418/0518 VRB04KT P6SM BKN040
     FM050300 VRB03KT 5SM BR SCT015 BKN030
     FM050800 00000KT 2SM BR BKN009 OVC015
     FM051400 00000KT 6SM BR BKN015=

USA.gov is the U.S. government's official web portal to all federal, state and local government web resources and services.